createdAt,value
2022-11-16T00:01:57.144Z,8.60
2022-11-16T00:04:43.225Z,8.60
2022-11-16T00:07:29.259Z,8.60
2022-11-16T00:10:15.710Z,8.60
2022-11-16T00:13:01.684Z,8.60
2022-11-16T00:15:58.213Z,8.70
2022-11-16T00:18:45.076Z,8.70
2022-11-16T00:21:31.523Z,8.70
2022-11-16T00:24:19.386Z,8.60
2022-11-16T00:27:05.784Z,8.70
2022-11-16T00:29:51.802Z,8.60
2022-11-16T00:32:37.798Z,8.60
2022-11-16T00:35:23.788Z,8.60
2022-11-16T00:38:09.851Z,8.50
2022-11-16T00:40:55.865Z,8.50
2022-11-16T00:43:42.189Z,8.60
2022-11-16T00:46:28.504Z,8.70
2022-11-16T00:49:15.083Z,8.70
2022-11-16T00:52:01.729Z,8.60
2022-11-16T00:54:48.523Z,8.70
2022-11-16T00:57:36.235Z,8.70
2022-11-16T01:00:23.624Z,8.80
2022-11-16T01:03:10.322Z,8.80
2022-11-16T01:06:04.666Z,8.80
2022-11-16T01:08:51.199Z,8.80
2022-11-16T01:11:55.838Z,8.80
2022-11-16T01:14:46.961Z,8.70
2022-11-16T01:17:33.045Z,8.70
2022-11-16T01:20:21.186Z,8.60
2022-11-16T01:23:07.784Z,8.60
2022-11-16T01:25:58.638Z,8.70
2022-11-16T01:28:45.368Z,8.70
2022-11-16T01:31:32.408Z,8.60
2022-11-16T01:34:20.536Z,8.60
2022-11-16T01:37:07.884Z,8.50
2022-11-16T01:39:58.068Z,8.50
2022-11-16T01:42:44.029Z,8.20
2022-11-16T01:45:43.905Z,8.10
2022-11-16T01:48:33.247Z,8.10
2022-11-16T01:51:20.516Z,8.20
2022-11-16T01:54:08.766Z,8.20
2022-11-16T01:57:00.618Z,8.30
2022-11-16T02:00:03.866Z,8.40
2022-11-16T02:02:59.725Z,8.40
2022-11-16T02:06:16.233Z,8.40
2022-11-16T02:09:24.353Z,8.30
2022-11-16T02:12:40.429Z,8.00
2022-11-16T02:15:32.524Z,7.80
2022-11-16T02:18:47.788Z,7.60
2022-11-16T02:21:42.963Z,7.80
2022-11-16T02:25:02.635Z,7.90
2022-11-16T02:27:59.607Z,7.90
2022-11-16T02:30:47.924Z,8.00
2022-11-16T02:33:39.070Z,8.00
2022-11-16T02:36:26.084Z,7.90
2022-11-16T02:39:17.505Z,7.90
2022-11-16T02:42:09.578Z,7.80
2022-11-16T02:44:58.059Z,7.80
2022-11-16T02:47:47.014Z,7.70
2022-11-16T02:50:35.655Z,7.70
2022-11-16T02:53:23.171Z,7.80
2022-11-16T02:56:13.521Z,7.80
2022-11-16T02:59:00.261Z,7.90
2022-11-16T03:02:19.376Z,7.90
2022-11-16T03:05:20.437Z,7.70
2022-11-16T03:08:22.408Z,7.60
2022-11-16T03:11:30.206Z,7.70
2022-11-16T03:14:23.044Z,7.50
2022-11-16T03:17:19.705Z,7.50
2022-11-16T03:20:15.756Z,7.70
2022-11-16T03:23:08.156Z,7.70
2022-11-16T03:25:56.984Z,7.60
2022-11-16T03:29:08.759Z,7.50
2022-11-16T03:32:09.473Z,7.60
2022-11-16T03:35:04.467Z,7.40
2022-11-16T03:37:54.311Z,7.40
2022-11-16T03:40:44.789Z,7.40
2022-11-16T03:43:31.849Z,7.40
2022-11-16T03:46:19.901Z,7.50
2022-11-16T03:49:06.347Z,7.40
2022-11-16T03:51:55.036Z,7.50
2022-11-16T03:54:42.384Z,7.30
2022-11-16T03:57:28.380Z,7.20
2022-11-16T04:00:18.189Z,7.20
2022-11-16T04:03:04.410Z,7.30
2022-11-16T04:06:09.092Z,7.20
2022-11-16T04:09:14.696Z,7.40
2022-11-16T04:12:33.435Z,7.50
2022-11-16T04:15:38.477Z,7.50
2022-11-16T04:18:43.837Z,7.50
2022-11-16T04:21:56.292Z,7.50
2022-11-16T04:24:50.403Z,7.50
2022-11-16T04:27:55.496Z,7.60
2022-11-16T04:31:07.588Z,7.60
2022-11-16T04:34:13.471Z,7.60
2022-11-16T04:37:23.649Z,7.60
2022-11-16T04:40:11.097Z,7.60
2022-11-16T04:43:00.994Z,7.60
2022-11-16T04:46:10.196Z,7.60
2022-11-16T04:48:59.228Z,7.60
2022-11-16T04:51:45.196Z,7.60
2022-11-16T04:54:31.397Z,7.60
2022-11-16T04:57:18.410Z,7.70
2022-11-16T05:00:07.440Z,7.70
2022-11-16T05:03:00.826Z,7.70
2022-11-16T05:05:50.207Z,7.70
2022-11-16T05:08:37.071Z,7.70
2022-11-16T05:11:24.929Z,7.60
2022-11-16T05:14:11.900Z,7.50
2022-11-16T05:16:59.734Z,7.40
2022-11-16T05:20:04.871Z,7.30
2022-11-16T05:22:56.906Z,7.30
2022-11-16T05:25:45.300Z,7.40
2022-11-16T05:28:31.795Z,7.30
2022-11-16T05:31:18.178Z,7.20
2022-11-16T05:34:04.251Z,7.10
2022-11-16T05:36:50.356Z,7.10
2022-11-16T05:39:36.895Z,7.10
2022-11-16T05:42:23.466Z,7.10
2022-11-16T05:45:10.371Z,7.20
2022-11-16T05:47:56.890Z,7.00
2022-11-16T05:50:43.392Z,7.00
2022-11-16T05:53:44.190Z,6.90
2022-11-16T05:56:35.379Z,6.80
2022-11-16T05:59:23.726Z,6.70
2022-11-16T06:02:14.557Z,6.60
2022-11-16T06:05:01.146Z,6.60
2022-11-16T06:07:47.177Z,6.50
2022-11-16T06:10:33.787Z,6.60
2022-11-16T06:13:19.810Z,6.70
2022-11-16T06:16:06.850Z,6.90
2022-11-16T06:18:54.682Z,7.10
2022-11-16T06:21:41.264Z,7.20
2022-11-16T06:24:33.999Z,7.30
2022-11-16T06:27:20.357Z,7.30
2022-11-16T06:30:07.713Z,7.30
2022-11-16T06:32:54.089Z,7.40
2022-11-16T06:35:40.262Z,7.40
2022-11-16T06:38:27.952Z,7.40
2022-11-16T06:41:14.964Z,7.40
2022-11-16T06:44:05.228Z,7.50
2022-11-16T06:46:55.514Z,7.50
2022-11-16T06:49:42.556Z,7.50
2022-11-16T06:52:35.993Z,7.60
2022-11-16T06:55:22.987Z,7.60
2022-11-16T06:58:08.978Z,7.60
2022-11-16T07:00:55.027Z,7.70
2022-11-16T07:03:42.765Z,7.70
2022-11-16T07:06:30.099Z,7.80
2022-11-16T07:09:17.538Z,7.90
2022-11-16T07:12:04.678Z,7.90
2022-11-16T07:14:55.704Z,8.00
2022-11-16T07:17:43.624Z,8.00
2022-11-16T07:20:29.739Z,8.00
2022-11-16T07:23:17.218Z,8.10
2022-11-16T07:26:07.351Z,8.10
2022-11-16T07:29:00.596Z,8.10
2022-11-16T07:31:47.484Z,8.20
2022-11-16T07:35:51.383Z,8.20
2022-11-16T07:39:54.584Z,8.20
2022-11-16T07:44:00.348Z,8.30
2022-11-16T07:48:00.990Z,8.20
2022-11-16T07:51:08.069Z,8.30
2022-11-16T07:53:58.839Z,8.30
2022-11-16T07:56:45.377Z,8.40
2022-11-16T07:59:31.846Z,8.40
2022-11-16T08:02:19.990Z,8.40
2022-11-16T08:05:08.295Z,8.40
2022-11-16T08:07:57.555Z,8.40
2022-11-16T08:10:44.928Z,8.50
2022-11-16T08:13:34.252Z,8.50
2022-11-16T08:16:23.371Z,8.50
2022-11-16T08:19:15.657Z,8.50
2022-11-16T08:22:01.758Z,8.60
2022-11-16T08:24:51.342Z,8.60
2022-11-16T08:27:37.757Z,8.70
2022-11-16T08:30:25.629Z,8.80
2022-11-16T08:33:12.578Z,8.90
2022-11-16T08:36:08.150Z,8.90
2022-11-16T08:38:58.121Z,9.00
2022-11-16T08:41:45.637Z,9.10
2022-11-16T08:44:32.163Z,9.10
2022-11-16T08:47:22.200Z,9.20
2022-11-16T08:50:12.349Z,9.30
2022-11-16T08:53:00.389Z,9.30
2022-11-16T08:55:46.861Z,9.40
2022-11-16T08:58:33.219Z,9.50
2022-11-16T09:01:22.927Z,9.60
2022-11-16T09:04:08.799Z,9.60
2022-11-16T09:06:54.981Z,9.70
2022-11-16T09:09:41.325Z,9.70
2022-11-16T09:12:27.445Z,9.70
2022-11-16T09:15:13.485Z,9.80
2022-11-16T09:17:59.422Z,9.80
2022-11-16T09:20:45.587Z,9.80
2022-11-16T09:23:31.869Z,9.80
2022-11-16T09:26:21.350Z,9.90
2022-11-16T09:29:07.368Z,9.90
2022-11-16T09:31:54.083Z,9.90
2022-11-16T09:34:40.067Z,9.90
2022-11-16T09:37:26.235Z,9.90
2022-11-16T09:40:12.694Z,9.90
2022-11-16T09:43:22.228Z,10.00
2022-11-16T09:46:25.713Z,10.00
2022-11-16T09:49:40.654Z,10.20
2022-11-16T09:52:26.802Z,10.20
2022-11-16T09:55:43.503Z,10.10
2022-11-16T09:58:41.571Z,10.10
2022-11-16T10:01:52.337Z,10.10
2022-11-16T10:04:58.648Z,10.00
2022-11-16T10:07:48.567Z,10.00
2022-11-16T10:11:07.126Z,10.00
2022-11-16T10:14:04.366Z,10.00
2022-11-16T10:17:08.208Z,10.00
2022-11-16T10:20:08.560Z,10.00
2022-11-16T10:23:25.495Z,10.10
2022-11-16T10:26:42.781Z,10.20
2022-11-16T10:30:07.605Z,10.20
2022-11-16T10:32:53.785Z,10.30
2022-11-16T10:35:45.975Z,10.40
2022-11-16T10:38:33.144Z,10.50
2022-11-16T10:41:19.387Z,10.50
2022-11-16T10:44:16.910Z,10.40
2022-11-16T10:47:12.379Z,10.50
2022-11-16T10:50:24.013Z,10.40
2022-11-16T10:53:32.252Z,10.30
2022-11-16T10:56:28.481Z,10.30
2022-11-16T10:59:18.561Z,10.30
2022-11-16T11:02:32.155Z,10.40
2022-11-16T11:05:22.241Z,10.40
2022-11-16T11:08:12.610Z,10.50
2022-11-16T11:11:22.262Z,10.50
2022-11-16T11:14:15.671Z,10.70
2022-11-16T11:17:12.319Z,10.80
2022-11-16T11:20:26.636Z,10.90
2022-11-16T11:23:21.941Z,11.10
2022-11-16T11:26:13.667Z,11.10
2022-11-16T11:29:01.517Z,11.20
2022-11-16T11:31:52.661Z,11.40
2022-11-16T11:34:45.477Z,11.30
2022-11-16T11:37:34.852Z,11.30
2022-11-16T11:40:23.828Z,11.40
2022-11-16T11:43:22.748Z,11.40
2022-11-16T11:46:56.162Z,11.40
2022-11-16T11:49:49.920Z,11.40
2022-11-16T11:52:56.453Z,11.50
2022-11-16T11:55:42.601Z,11.60
2022-11-16T11:58:35.598Z,11.70
2022-11-16T12:01:36.535Z,11.70
2022-11-16T12:04:44.736Z,11.80
2022-11-16T12:07:47.195Z,11.90
2022-11-16T12:10:55.704Z,12.00
2022-11-16T12:13:54.081Z,12.10
2022-11-16T12:17:01.334Z,12.20
2022-11-16T12:20:19.589Z,12.20
2022-11-16T12:23:05.759Z,12.20
2022-11-16T12:26:33.170Z,12.20
2022-11-16T12:29:32.509Z,12.20
2022-11-16T12:32:30.752Z,12.20
2022-11-16T12:35:32.627Z,12.20
2022-11-16T12:38:46.992Z,12.10
2022-11-16T12:42:02.034Z,12.10
2022-11-16T12:44:48.101Z,12.10
2022-11-16T12:47:52.697Z,12.10
2022-11-16T12:51:06.810Z,12.00
2022-11-16T12:54:14.394Z,12.10
2022-11-16T12:57:24.424Z,12.10
2022-11-16T13:00:15.869Z,12.10
2022-11-16T13:03:37.162Z,12.20
2022-11-16T13:06:44.311Z,12.20
2022-11-16T13:09:38.279Z,12.40
2022-11-16T13:12:26.540Z,12.80
2022-11-16T13:15:19.287Z,13.40
2022-11-16T13:18:15.486Z,13.90
2022-11-16T13:21:12.285Z,14.20
2022-11-16T13:24:26.633Z,14.30
2022-11-16T13:27:21.968Z,14.20
2022-11-16T13:30:23.394Z,14.20
2022-11-16T13:33:51.365Z,14.10
2022-11-16T13:36:39.370Z,14.00
2022-11-16T13:39:50.332Z,14.00
2022-11-16T13:42:43.865Z,13.90
2022-11-16T13:45:55.512Z,13.90
2022-11-16T13:48:45.577Z,13.90
2022-11-16T13:51:31.964Z,14.50
2022-11-16T13:54:50.521Z,16.20
2022-11-16T13:57:36.899Z,18.20
2022-11-16T14:00:35.612Z,19.50
2022-11-16T14:03:21.767Z,20.10
2022-11-16T14:06:30.642Z,20.80
2022-11-16T14:09:42.996Z,20.60
2022-11-16T14:12:38.403Z,19.50
2022-11-16T14:15:30.011Z,18.20
2022-11-16T14:18:16.092Z,17.00
2022-11-16T14:21:43.519Z,16.50
2022-11-16T14:24:49.651Z,16.90
2022-11-16T14:27:50.602Z,17.10
2022-11-16T14:30:49.912Z,17.70
2022-11-16T14:33:38.017Z,18.50
2022-11-16T14:36:45.565Z,18.60
2022-11-16T14:39:43.413Z,17.90
2022-11-16T14:42:43.009Z,17.00
2022-11-16T14:45:39.819Z,16.10
2022-11-16T14:48:26.986Z,16.00
2022-11-16T14:51:27.265Z,16.10
2022-11-16T14:54:34.058Z,15.60
2022-11-16T14:57:22.845Z,14.90
2022-11-16T15:00:29.932Z,14.50
2022-11-16T15:03:16.251Z,14.20
2022-11-16T15:06:04.021Z,13.90
2022-11-16T15:08:54.486Z,13.50
2022-11-16T15:12:01.552Z,13.30
2022-11-16T15:14:52.863Z,13.10
2022-11-16T15:17:41.896Z,12.90
2022-11-16T15:20:31.618Z,12.70
2022-11-16T15:23:18.904Z,12.50
2022-11-16T15:26:05.197Z,12.40
2022-11-16T15:28:51.989Z,12.20
2022-11-16T15:31:41.554Z,12.00
2022-11-16T15:34:27.900Z,11.70
2022-11-16T15:37:15.312Z,11.40
2022-11-16T15:40:03.288Z,11.10
2022-11-16T15:42:51.453Z,11.00
2022-11-16T15:45:39.017Z,10.90
2022-11-16T15:48:28.070Z,10.90
2022-11-16T15:51:23.146Z,10.90
2022-11-16T15:54:15.575Z,10.70
2022-11-16T15:57:08.382Z,10.50
2022-11-16T15:59:57.295Z,10.30
2022-11-16T16:02:44.769Z,10.00
2022-11-16T16:05:36.720Z,9.90
2022-11-16T16:08:27.678Z,9.80
2022-11-16T16:11:24.003Z,9.90
2022-11-16T16:14:30.809Z,10.00
2022-11-16T16:17:30.427Z,10.00
2022-11-16T16:20:21.894Z,10.00
2022-11-16T16:23:15.835Z,9.90
2022-11-16T16:26:04.909Z,9.80
2022-11-16T16:28:51.510Z,9.80
2022-11-16T16:31:37.859Z,9.70
2022-11-16T16:34:23.759Z,9.60
2022-11-16T16:37:11.916Z,9.60
2022-11-16T16:39:58.547Z,9.50
2022-11-16T16:42:48.036Z,9.50
2022-11-16T16:45:38.067Z,9.50
2022-11-16T16:48:23.993Z,9.50
2022-11-16T16:51:12.339Z,9.60
2022-11-16T16:53:58.735Z,9.60
2022-11-16T16:56:44.873Z,9.60
2022-11-16T16:59:31.272Z,9.60
2022-11-16T17:02:17.807Z,9.50
2022-11-16T17:05:03.951Z,9.50
2022-11-16T17:07:50.338Z,9.60
2022-11-16T17:10:38.774Z,9.50
2022-11-16T17:13:24.617Z,9.50
2022-11-16T17:16:10.728Z,9.40
2022-11-16T17:18:56.760Z,9.30
2022-11-16T17:21:42.685Z,9.30
2022-11-16T17:24:28.701Z,9.30
2022-11-16T17:27:14.777Z,9.20
2022-11-16T17:30:00.739Z,9.10
2022-11-16T17:32:47.047Z,9.00
2022-11-16T17:35:32.871Z,8.90
2022-11-16T17:38:18.861Z,8.70
2022-11-16T17:41:10.115Z,8.60
2022-11-16T17:43:56.794Z,8.60
2022-11-16T17:46:43.117Z,8.70
2022-11-16T17:49:29.334Z,8.60
2022-11-16T17:52:15.386Z,8.40
2022-11-16T17:55:01.777Z,8.50
2022-11-16T17:57:49.667Z,8.50
2022-11-16T18:00:35.757Z,8.50
2022-11-16T18:03:24.037Z,8.40
2022-11-16T18:06:15.972Z,8.30
2022-11-16T18:09:02.437Z,8.10
2022-11-16T18:11:48.793Z,8.20
2022-11-16T18:14:34.765Z,8.20
2022-11-16T18:17:20.889Z,8.30
2022-11-16T18:20:08.384Z,8.10
2022-11-16T18:22:54.489Z,7.90
2022-11-16T18:25:40.483Z,7.90
2022-11-16T18:28:26.462Z,7.90
2022-11-16T18:31:15.537Z,7.90
2022-11-16T18:34:02.106Z,8.00
2022-11-16T18:36:50.000Z,8.00
2022-11-16T18:39:36.369Z,8.10
2022-11-16T18:42:22.631Z,8.00
2022-11-16T18:45:09.257Z,7.80
2022-11-16T18:47:55.184Z,7.60
2022-11-16T18:50:41.258Z,7.60
2022-11-16T18:53:28.632Z,7.60
2022-11-16T18:56:15.772Z,7.60
2022-11-16T18:59:02.780Z,7.60
2022-11-16T19:01:48.809Z,7.70
2022-11-16T19:04:34.775Z,7.70
2022-11-16T19:07:20.810Z,7.60
2022-11-16T19:10:07.408Z,7.60
2022-11-16T19:12:53.566Z,7.50
2022-11-16T19:15:41.586Z,7.50
2022-11-16T19:18:28.021Z,7.50
2022-11-16T19:21:15.619Z,7.40
2022-11-16T19:24:01.965Z,7.20
2022-11-16T19:26:47.992Z,7.20
2022-11-16T19:29:33.903Z,7.30
2022-11-16T19:32:19.892Z,7.30
2022-11-16T19:35:06.360Z,7.30
2022-11-16T19:37:52.406Z,7.40
2022-11-16T19:40:39.528Z,7.30
2022-11-16T19:43:25.529Z,7.40
2022-11-16T19:46:16.559Z,7.50
2022-11-16T19:49:03.036Z,7.50
2022-11-16T19:51:49.691Z,7.50
2022-11-16T19:54:35.864Z,7.40
2022-11-16T19:57:21.943Z,7.30
2022-11-16T20:00:08.565Z,7.20
2022-11-16T20:02:58.139Z,7.00
2022-11-16T20:05:44.091Z,6.90
2022-11-16T20:08:30.139Z,6.90
2022-11-16T20:11:20.259Z,6.90
2022-11-16T20:14:08.736Z,6.90
2022-11-16T20:16:55.175Z,6.90
2022-11-16T20:19:41.741Z,6.90
2022-11-16T20:22:27.627Z,6.80
2022-11-16T20:25:13.685Z,6.80
2022-11-16T20:28:00.316Z,6.70
2022-11-16T20:30:47.378Z,6.70
2022-11-16T20:33:34.578Z,6.70
2022-11-16T20:36:22.947Z,6.60
2022-11-16T20:39:13.320Z,6.60
2022-11-16T20:41:59.484Z,6.60
2022-11-16T20:44:45.584Z,6.60
2022-11-16T20:47:31.744Z,6.50
2022-11-16T20:50:19.479Z,6.60
2022-11-16T20:53:05.601Z,6.50
2022-11-16T20:55:51.593Z,6.60
2022-11-16T20:58:37.768Z,6.50
2022-11-16T21:01:31.709Z,6.40
2022-11-16T21:04:18.448Z,6.40
2022-11-16T21:07:04.927Z,6.40
2022-11-16T21:10:29.624Z,6.20
2022-11-16T21:13:37.944Z,6.20
2022-11-16T21:16:23.754Z,6.10
2022-11-16T21:19:10.702Z,6.10
2022-11-16T21:21:56.639Z,6.10
2022-11-16T21:24:42.672Z,6.00
2022-11-16T21:27:28.801Z,6.00
2022-11-16T21:30:15.022Z,6.00
2022-11-16T21:33:01.238Z,5.90
2022-11-16T21:35:47.393Z,6.00
2022-11-16T21:38:34.409Z,5.90
2022-11-16T21:41:21.994Z,5.90
2022-11-16T21:44:07.949Z,6.00
2022-11-16T21:46:54.376Z,6.00
2022-11-16T21:50:00.903Z,6.10
2022-11-16T21:52:46.989Z,6.00
2022-11-16T21:55:33.607Z,6.00
2022-11-16T21:58:19.785Z,6.00
2022-11-16T22:01:06.324Z,6.10
2022-11-16T22:04:11.027Z,6.10
2022-11-16T22:07:15.316Z,6.10
2022-11-16T22:10:02.574Z,6.00
2022-11-16T22:12:48.693Z,5.80
2022-11-16T22:15:34.849Z,5.70
2022-11-16T22:18:20.885Z,5.60
2022-11-16T22:21:07.514Z,5.60
2022-11-16T22:23:54.331Z,5.60
2022-11-16T22:26:41.084Z,5.60
2022-11-16T22:29:27.179Z,5.50
2022-11-16T22:32:13.115Z,5.50
2022-11-16T22:34:59.142Z,5.40
2022-11-16T22:37:45.199Z,5.50
2022-11-16T22:40:31.607Z,5.50
2022-11-16T22:43:18.265Z,5.50
2022-11-16T22:46:05.785Z,5.50
2022-11-16T22:48:52.096Z,5.40
2022-11-16T22:51:38.009Z,5.40
2022-11-16T22:54:28.458Z,5.30
2022-11-16T22:57:14.794Z,5.30
2022-11-16T23:00:00.650Z,5.30
2022-11-16T23:02:46.705Z,5.20
2022-11-16T23:05:32.786Z,5.20
2022-11-16T23:08:18.726Z,5.20
2022-11-16T23:11:26.878Z,5.10
2022-11-16T23:14:36.157Z,5.30
2022-11-16T23:17:22.186Z,5.30
2022-11-16T23:20:27.717Z,5.20
2022-11-16T23:23:37.062Z,5.30
2022-11-16T23:26:42.690Z,5.30
2022-11-16T23:29:28.669Z,5.30
2022-11-16T23:32:14.647Z,5.20
2022-11-16T23:35:01.050Z,5.30
2022-11-16T23:38:07.256Z,5.20
2022-11-16T23:40:54.244Z,5.20
2022-11-16T23:44:09.739Z,5.20
2022-11-16T23:46:55.857Z,5.10
2022-11-16T23:49:42.155Z,5.10
2022-11-16T23:52:28.121Z,5.20
2022-11-16T23:55:14.064Z,5.20
2022-11-16T23:58:00.276Z,5.30
